Time;durP1;ratioP1;P1;durP2;ratioP2;P2;SDS_P1;SDS_P2;PMS_P1;PMS_P2;Temp;Humidity;BMP_temperature;BMP_pressure;BME280_temperature;BME280_humidity;BME280_pressure;Samples;Min_cycle;Max_cycle;Signal;HPM_P1;HPM_P2
2021/12/12 00:00:57;;;;;;;;;;;;;;;4.50;100.00;89548.19;5072913;28;19921;-68
2021/12/12 00:03:33;;;;;;;;;;;;;;;4.56;100.00;89562.00;5072485;28;19921;-68
2021/12/12 00:06:02;;;;;;;;;;;;;;;4.60;100.00;89553.19;5072418;28;19925;-68
2021/12/12 00:08:28;;;;;;;;;;;;;;;4.64;100.00;89558.63;5072531;28;20437;-68
2021/12/12 00:10:55;;;;;;;;;;;;;;;4.70;100.00;89573.97;5072506;28;20062;-68
2021/12/12 00:13:24;;;;;;;;;;;;;;;4.71;100.00;89580.00;5072173;28;19989;-67
2021/12/12 00:15:50;;;;;;;;;;;;;;;4.57;100.00;89584.59;5072469;28;19967;-68
2021/12/12 00:18:16;;;;;;;;;;;;;;;4.56;100.00;89572.53;5072373;28;19916;-68
2021/12/12 00:20:42;;;;;;;;;;;;;;;4.45;100.00;89557.03;5072319;28;20027;-68
2021/12/12 00:23:08;;;;;;;;;;;;;;;4.46;100.00;89557.78;5072190;28;19951;-68
2021/12/12 00:25:35;;;;;;;;;;;;;;;4.38;100.00;89551.41;5072184;28;20017;-68
2021/12/12 00:28:00;;;;;;;;;;;;;;;4.20;100.00;89560.31;5072226;28;19921;-68
2021/12/12 00:30:27;;;;;;;;;;;;;;;4.22;100.00;89584.47;5072175;28;19917;-68
2021/12/12 00:32:53;;;;;;;;;;;;;;;4.07;100.00;89569.84;5071929;28;20027;-68
2021/12/12 00:35:18;;;;;;;;;;;;;;;4.05;100.00;89568.59;5072114;28;19934;-68
2021/12/12 00:37:44;;;;;;;;;;;;;;;3.95;100.00;89559.13;5072060;28;19920;-67
2021/12/12 00:40:35;;;;;;;;;;;;;;;3.83;100.00;89578.09;5072077;28;19924;-68
2021/12/12 00:43:03;;;;;;;;;;;;;;;3.64;100.00;89582.00;5068773;28;19924;-68
2021/12/12 00:45:29;;;;;;;;;;;;;;;3.59;100.00;89588.13;5071919;28;19920;-67
2021/12/12 00:47:55;;;;;;;;;;;;;;;3.50;100.00;89595.22;5071917;28;19970;-68
2021/12/12 00:50:25;;;;;;;;;;;;;;;3.37;100.00;89594.19;5071917;28;19989;-68
2021/12/12 00:52:51;;;;;;;;;;;;;;;3.28;100.00;89588.84;5071691;28;20385;-67
2021/12/12 00:55:16;;;;;;;;;;;;;;;3.19;100.00;89600.38;5071831;28;19916;-68
2021/12/12 00:57:42;;;;;;;;;;;;;;;3.16;100.00;89612.25;5071825;28;19928;-68
2021/12/12 01:00:11;;;;;;;;;;;;;;;3.18;100.00;89612.72;5071848;28;19916;-68
2021/12/12 01:02:36;;;;;;;;;;;;;;;3.25;100.00;89613.09;5070923;28;19924;-68
2021/12/12 01:05:04;;;;;;;;;;;;;;;3.41;100.00;89618.00;5071627;28;19924;-68
2021/12/12 01:07:33;;;;;;;;;;;;;;;3.45;100.00;89614.47;5053706;28;19920;-67
2021/12/12 01:10:01;;;;;;;;;;;;;;;3.40;100.00;89608.56;5071697;28;20382;-68
2021/12/12 01:12:30;;;;;;;;;;;;;;;3.36;100.00;89618.91;5071562;28;19916;-68
2021/12/12 01:14:59;;;;;;;;;;;;;;;3.35;100.00;89614.72;5071569;28;19916;-67
2021/12/12 01:17:30;;;;;;;;;;;;;;;3.45;100.00;89619.72;5071612;28;19917;-68
2021/12/12 01:19:58;;;;;;;;;;;;;;;3.48;100.00;89618.38;5071615;28;19917;-68
2021/12/12 01:22:29;;;;;;;;;;;;;;;3.46;100.00;89617.88;5071585;28;19954;-67
2021/12/12 01:24:56;;;;;;;;;;;;;;;3.52;100.00;89619.34;5071399;28;19921;-68
2021/12/12 01:27:21;;;;;;;;;;;;;;;3.52;100.00;89628.00;5071579;28;19917;-68
2021/12/12 01:29:49;;;;;;;;;;;;;;;3.52;100.00;89627.22;5071443;28;19916;-68
2021/12/12 01:32:25;;;;;;;;;;;;;;;3.52;100.00;89619.34;5071425;28;19916;-68
2021/12/12 01:34:51;;;;;;;;;;;;;;;3.54;100.00;89635.59;5071385;28;20297;-68
2021/12/12 01:39:54;;;;;;;;;;;;;;;3.59;100.00;89646.75;5071705;28;20115;-68
2021/12/12 01:42:24;;;;;;;;;;;;;;;3.59;100.00;89646.75;5053372;28;20366;-67
2021/12/12 01:44:49;;;;;;;;;;;;;;;3.60;100.00;89645.69;5071270;28;19916;-67
2021/12/12 01:47:26;;;;;;;;;;;;;;;3.73;100.00;89646.72;5071333;28;19927;-68
2021/12/12 01:49:54;;;;;;;;;;;;;;;3.76;100.00;89643.47;5071280;28;19916;-67
2021/12/12 01:52:21;;;;;;;;;;;;;;;3.73;100.00;89649.34;5071195;28;19916;-68
2021/12/12 01:54:47;;;;;;;;;;;;;;;3.78;100.00;89657.09;5071151;28;20016;-68
2021/12/12 01:57:25;;;;;;;;;;;;;;;3.95;100.00;89666.22;5071474;28;20342;-69
2021/12/12 01:59:52;;;;;;;;;;;;;;;3.99;100.00;89667.16;5071249;28;19916;-68
2021/12/12 02:02:20;;;;;;;;;;;;;;;4.05;100.00;89650.94;5053150;28;19920;-68
2021/12/12 02:04:47;;;;;;;;;;;;;;;4.15;100.00;89655.97;5070847;28;19924;-68
2021/12/12 02:07:14;;;;;;;;;;;;;;;4.12;100.00;89666.34;5070963;28;19933;-67
2021/12/12 02:09:40;;;;;;;;;;;;;;;4.04;100.00;89649.41;5071143;28;20011;-68
2021/12/12 02:12:06;;;;;;;;;;;;;;;4.08;100.00;89665.34;5070949;28;20371;-68
2021/12/12 02:14:35;;;;;;;;;;;;;;;4.12;100.00;89676.84;5072629;28;19966;-68
2021/12/12 02:17:03;;;;;;;;;;;;;;;4.18;100.00;89673.00;5074732;28;19923;-68
2021/12/12 02:19:38;;;;;;;;;;;;;;;4.13;100.00;89657.34;5074662;28;19917;-68
2021/12/12 02:22:20;;;;;;;;;;;;;;;3.88;100.00;89650.84;5074682;28;19921;-68
2021/12/12 02:35:47;;;;;;;;;;;;;;;4.15;100.00;89663.09;5074646;28;19974;-68
2021/12/12 02:38:18;;;;;;;;;;;;;;;4.05;100.00;89671.22;5074336;28;20313;-67
2021/12/12 02:40:50;;;;;;;;;;;;;;;4.05;100.00;89669.38;5074257;28;19926;-67
2021/12/12 02:43:18;;;;;;;;;;;;;;;3.96;100.00;89665.91;5074336;28;19917;-67
2021/12/12 02:45:44;;;;;;;;;;;;;;;3.84;100.00;89666.44;5074435;28;19917;-68
2021/12/12 02:50:41;;;;;;;;;;;;;;;3.97;100.00;89658.81;5091509;28;19935;-71
2021/12/12 02:53:18;;;;;;;;;;;;;;;3.92;100.00;89662.31;5094097;28;20360;-70
2021/12/12 02:55:45;;;;;;;;;;;;;;;3.91;100.00;89650.25;5094193;28;19920;-71
2021/12/12 02:58:13;;;;;;;;;;;;;;;3.82;100.00;89650.19;5093990;28;19917;-70
2021/12/12 03:00:43;;;;;;;;;;;;;;;3.78;100.00;89659.72;5094031;28;19999;-70
2021/12/12 03:03:09;;;;;;;;;;;;;;;3.84;100.00;89674.34;5093959;28;19916;-70
2021/12/12 03:05:36;;;;;;;;;;;;;;;3.77;100.00;89658.19;5093936;28;19920;-70
2021/12/12 03:08:03;;;;;;;;;;;;;;;3.74;100.00;89661.41;5093856;28;20392;-70
2021/12/12 03:10:30;;;;;;;;;;;;;;;3.62;100.00;89661.16;5093972;28;19916;-70
2021/12/12 03:12:56;;;;;;;;;;;;;;;3.63;100.00;89668.00;5093819;28;20304;-70
2021/12/12 03:15:23;;;;;;;;;;;;;;;3.66;100.00;89672.66;5093717;28;19923;-70
2021/12/12 03:17:50;;;;;;;;;;;;;;;3.67;100.00;89674.22;5093656;28;19917;-70
2021/12/12 03:20:23;;;;;;;;;;;;;;;3.61;100.00;89681.41;5093751;28;19962;-70
2021/12/12 03:22:50;;;;;;;;;;;;;;;3.49;100.00;89696.94;5075368;28;19959;-70
2021/12/12 03:25:15;;;;;;;;;;;;;;;3.44;100.00;89699.66;5092911;28;20020;-70
2021/12/12 03:27:41;;;;;;;;;;;;;;;3.38;100.00;89707.97;5093292;28;20439;-70
2021/12/12 03:30:06;;;;;;;;;;;;;;;3.47;100.00;89707.00;5093329;28;19917;-71
2021/12/12 03:32:32;;;;;;;;;;;;;;;3.47;100.00;89720.13;5093385;28;19939;-71
2021/12/12 03:35:01;;;;;;;;;;;;;;;3.39;100.00;89720.81;5075286;28;20271;-71
2021/12/12 03:37:28;;;;;;;;;;;;;;;3.32;100.00;89714.41;5093391;28;19916;-71
2021/12/12 03:39:55;;;;;;;;;;;;;;;3.30;100.00;89718.09;5093270;28;20336;-71
2021/12/12 03:42:22;;;;;;;;;;;;;;;3.21;100.00;89722.50;5075049;28;19927;-71
2021/12/12 03:44:48;;;;;;;;;;;;;;;3.16;100.00;89714.72;5093183;28;19923;-71
2021/12/12 03:47:17;;;;;;;;;;;;;;;3.12;100.00;89711.09;5074919;28;19927;-73
2021/12/12 03:49:42;;;;;;;;;;;;;;;3.05;100.00;89726.50;5092863;28;20312;-73
2021/12/12 03:52:09;;;;;;;;;;;;;;;2.96;100.00;89731.63;5092961;28;20023;-74
2021/12/12 03:54:34;;;;;;;;;;;;;;;2.94;100.00;89740.88;5075126;28;20529;-74
2021/12/12 03:57:00;;;;;;;;;;;;;;;2.94;100.00;89735.63;5093039;28;19920;-74
2021/12/12 03:59:25;;;;;;;;;;;;;;;2.89;100.00;89735.72;5092849;28;19970;-74
2021/12/12 04:01:52;;;;;;;;;;;;;;;2.77;100.00;89738.06;5092874;28;19969;-74
2021/12/12 04:04:24;;;;;;;;;;;;;;;2.79;100.00;89751.66;5092780;28;20417;-74
2021/12/12 04:06:50;;;;;;;;;;;;;;;2.78;100.00;89773.75;5092729;28;20385;-74
2021/12/12 04:09:16;;;;;;;;;;;;;;;2.66;100.00;89764.47;5092873;28;19923;-74
2021/12/12 04:11:49;;;;;;;;;;;;;;;2.72;100.00;89772.28;5092689;28;20389;-74
2021/12/12 04:14:16;;;;;;;;;;;;;;;2.82;100.00;89790.47;5092641;28;19963;-75
2021/12/12 04:16:43;;;;;;;;;;;;;;;2.81;100.00;89794.16;5092587;28;19923;-74
2021/12/12 04:19:08;;;;;;;;;;;;;;;2.80;100.00;89782.09;5092451;28;19923;-74
2021/12/12 04:21:35;;;;;;;;;;;;;;;2.68;100.00;89780.75;5092472;28;19920;-74
2021/12/12 04:24:00;;;;;;;;;;;;;;;2.73;100.00;89802.72;5092288;28;20046;-73
2021/12/12 04:26:33;;;;;;;;;;;;;;;2.79;100.00;89797.09;5092204;28;20418;-73
2021/12/12 04:28:58;;;;;;;;;;;;;;;2.82;100.00;89804.38;5092060;28;19916;-73
2021/12/12 04:31:24;;;;;;;;;;;;;;;2.89;100.00;89806.66;5092209;28;20013;-73
2021/12/12 04:33:51;;;;;;;;;;;;;;;2.85;100.00;89816.97;5092143;28;19920;-73
2021/12/12 04:36:16;;;;;;;;;;;;;;;2.82;100.00;89807.00;5092134;28;20029;-73
2021/12/12 04:38:41;;;;;;;;;;;;;;;2.82;100.00;89809.63;5091932;28;19995;-73
2021/12/12 04:41:07;;;;;;;;;;;;;;;2.84;100.00;89806.72;5092184;28;19922;-73
2021/12/12 04:43:32;;;;;;;;;;;;;;;2.78;100.00;89803.41;5092082;28;19923;-74
2021/12/12 04:46:09;;;;;;;;;;;;;;;2.81;100.00;89807.31;5092157;28;20320;-73
2021/12/12 04:51:24;;;;;;;;;;;;;;;2.81;100.00;89831.72;5092051;28;19923;-74
2021/12/12 04:54:04;;;;;;;;;;;;;;;2.93;100.00;89847.03;5091945;28;19990;-74
2021/12/12 04:56:39;;;;;;;;;;;;;;;3.02;100.00;89850.56;5091919;28;19920;-74
2021/12/12 04:59:11;;;;;;;;;;;;;;;3.15;100.00;89857.66;5091793;28;20750;-74
2021/12/12 05:01:45;;;;;;;;;;;;;;;3.19;100.00;89853.41;5091862;28;19922;-75
2021/12/12 05:04:11;;;;;;;;;;;;;;;3.29;100.00;89853.19;5091841;28;19946;-75
2021/12/12 05:06:36;;;;;;;;;;;;;;;3.33;100.00;89861.31;5091857;28;19916;-75
2021/12/12 05:09:06;;;;;;;;;;;;;;;3.47;100.00;89872.63;5091731;28;19969;-74
2021/12/12 05:11:35;;;;;;;;;;;;;;;3.55;100.00;89873.78;5091792;28;20011;-75
2021/12/12 05:14:06;;;;;;;;;;;;;;;3.60;100.00;89868.41;5091740;28;20304;-74
2021/12/12 05:16:39;;;;;;;;;;;;;;;3.55;100.00;89879.81;5091679;28;19916;-75
2021/12/12 05:19:15;;;;;;;;;;;;;;;3.62;100.00;89887.28;5073133;28;19962;-75
2021/12/12 05:21:45;;;;;;;;;;;;;;;3.74;100.00;89890.22;5091705;28;20480;-74
2021/12/12 05:24:13;;;;;;;;;;;;;;;3.84;100.00;89890.03;5091619;28;19916;-74
2021/12/12 05:26:41;;;;;;;;;;;;;;;3.90;100.00;89894.13;5091659;28;19916;-74
2021/12/12 05:29:09;;;;;;;;;;;;;;;3.78;100.00;89875.41;5091517;28;19916;-74
2021/12/12 05:31:35;;;;;;;;;;;;;;;3.56;100.00;89872.69;5091698;28;20356;-74
2021/12/12 05:34:00;;;;;;;;;;;;;;;3.54;100.00;89887.97;5091528;28;19916;-75
2021/12/12 05:36:27;;;;;;;;;;;;;;;3.61;100.00;89883.88;5091554;28;20289;-75
2021/12/12 05:38:53;;;;;;;;;;;;;;;3.52;100.00;89882.25;5091462;28;19923;-74
2021/12/12 05:41:20;;;;;;;;;;;;;;;3.23;100.00;89890.38;5091518;28;20401;-74
2021/12/12 05:43:47;;;;;;;;;;;;;;;3.12;100.00;89881.88;5091497;28;20021;-74
2021/12/12 05:46:15;;;;;;;;;;;;;;;3.17;100.00;89894.97;5091495;28;20010;-74
2021/12/12 05:48:41;;;;;;;;;;;;;;;3.15;100.00;89888.41;5091785;28;19924;-74
2021/12/12 05:51:07;;;;;;;;;;;;;;;3.17;100.00;89894.97;5095391;28;19920;-75
2021/12/12 05:53:32;;;;;;;;;;;;;;;3.17;100.00;89892.31;5095320;28;19940;-75
2021/12/12 05:55:58;;;;;;;;;;;;;;;3.20;100.00;89899.63;5095318;28;19916;-74
2021/12/12 05:58:23;;;;;;;;;;;;;;;3.28;100.00;89914.72;5095134;28;20400;-74
2021/12/12 06:00:51;;;;;;;;;;;;;;;3.36;100.00;89920.41;5095288;28;19973;-74
2021/12/12 06:03:19;;;;;;;;;;;;;;;3.42;100.00;89932.38;5095191;28;19916;-74
2021/12/12 06:05:45;;;;;;;;;;;;;;;3.67;100.00;89941.66;5095156;28;19924;-74
2021/12/12 06:08:11;;;;;;;;;;;;;;;3.73;100.00;89937.84;5095036;28;20301;-74
2021/12/12 06:10:37;;;;;;;;;;;;;;;3.71;100.00;89951.31;5095316;28;20028;-74
2021/12/12 06:13:04;;;;;;;;;;;;;;;3.68;100.00;89959.00;5094935;28;19970;-73
2021/12/12 06:15:30;;;;;;;;;;;;;;;3.74;100.00;89963.88;5094942;28;19923;-73
2021/12/12 06:17:56;;;;;;;;;;;;;;;3.88;100.00;89964.66;5094765;28;19968;-74
2021/12/12 06:20:22;;;;;;;;;;;;;;;4.00;100.00;89971.31;5094414;28;19916;-73
2021/12/12 06:22:48;;;;;;;;;;;;;;;4.04;100.00;89970.41;5086277;28;19920;-72
2021/12/12 06:25:14;;;;;;;;;;;;;;;4.18;100.00;89979.09;5091543;28;19963;-75
2021/12/12 06:27:40;;;;;;;;;;;;;;;4.40;100.00;89985.50;5093985;28;20403;-73
2021/12/12 06:30:08;;;;;;;;;;;;;;;4.71;100.00;89991.72;5094188;28;19997;-76
2021/12/12 06:32:33;;;;;;;;;;;;;;;4.80;100.00;89987.31;5093575;28;20423;-76
2021/12/12 06:34:59;;;;;;;;;;;;;;;4.79;100.00;89977.06;5093812;28;20044;-77
2021/12/12 06:37:25;;;;;;;;;;;;;;;4.58;100.00;89981.22;5094286;28;20396;-76
2021/12/12 06:39:51;;;;;;;;;;;;;;;4.63;100.00;89979.25;5093270;28;19943;-75
2021/12/12 06:42:17;;;;;;;;;;;;;;;4.46;100.00;89985.13;5094085;28;19923;-75
2021/12/12 06:44:43;;;;;;;;;;;;;;;4.45;100.00;89990.69;5093942;28;19916;-78
2021/12/12 06:47:09;;;;;;;;;;;;;;;4.40;100.00;89990.78;5093542;28;19916;-77
2021/12/12 06:49:35;;;;;;;;;;;;;;;4.51;100.00;89987.66;5093299;28;19928;-76
2021/12/12 06:52:02;;;;;;;;;;;;;;;4.57;100.00;90000.72;5093477;28;19916;-76
2021/12/12 06:54:28;;;;;;;;;;;;;;;4.82;100.00;90002.81;5093260;28;19973;-77
2021/12/12 06:56:55;;;;;;;;;;;;;;;5.15;100.00;90000.78;5093655;28;19916;-76
2021/12/12 06:59:22;;;;;;;;;;;;;;;5.39;100.00;90008.41;5093628;28;19920;-75
2021/12/12 07:01:49;;;;;;;;;;;;;;;5.79;100.00;90011.16;5091921;28;20392;-74
2021/12/12 07:04:18;;;;;;;;;;;;;;;6.07;100.00;90009.16;5093005;28;19920;-77
2021/12/12 07:06:44;;;;;;;;;;;;;;;5.80;100.00;89999.50;5093452;28;19927;-77
2021/12/12 07:09:10;;;;;;;;;;;;;;;5.80;100.00;90007.44;5093067;28;19926;-76
2021/12/12 07:11:36;;;;;;;;;;;;;;;5.38;100.00;90025.31;5093594;28;19916;-77
2021/12/12 07:14:04;;;;;;;;;;;;;;;4.93;100.00;90029.75;5093542;28;19916;-77
2021/12/12 07:16:29;;;;;;;;;;;;;;;4.66;100.00;90028.69;5093198;28;19916;-77
2021/12/12 07:18:54;;;;;;;;;;;;;;;4.61;100.00;90039.34;5092713;28;19942;-77
2021/12/12 07:21:20;;;;;;;;;;;;;;;4.68;100.00;90045.00;5093347;28;20321;-77
2021/12/12 07:23:47;;;;;;;;;;;;;;;4.97;100.00;90035.97;5093052;28;19927;-77
2021/12/12 07:26:13;;;;;;;;;;;;;;;5.26;100.00;90054.84;5093248;28;19923;-77
2021/12/12 07:28:39;;;;;;;;;;;;;;;5.35;100.00;90053.03;5093053;28;20017;-77
2021/12/12 07:31:09;;;;;;;;;;;;;;;5.47;100.00;90044.63;5088573;28;19924;-76
2021/12/12 07:33:35;;;;;;;;;;;;;;;5.40;100.00;90044.25;5092513;28;20420;-78
2021/12/12 07:36:03;;;;;;;;;;;;;;;5.67;100.00;90052.03;5093206;28;19983;-77
2021/12/12 07:38:30;;;;;;;;;;;;;;;6.29;100.00;90052.13;5092830;28;20025;-76
2021/12/12 07:40:56;;;;;;;;;;;;;;;6.56;100.00;90045.88;5092824;28;19931;-77
2021/12/12 07:43:22;;;;;;;;;;;;;;;6.84;100.00;90048.31;5092886;28;20006;-74
2021/12/12 07:45:47;;;;;;;;;;;;;;;7.99;100.00;90060.22;5093017;28;20003;-74
2021/12/12 07:48:13;;;;;;;;;;;;;;;7.75;100.00;90066.03;5092065;28;19922;-74
2021/12/12 07:50:40;;;;;;;;;;;;;;;7.16;100.00;90066.44;5091143;28;20390;-74
2021/12/12 07:53:07;;;;;;;;;;;;;;;7.14;100.00;90070.47;5092592;28;19966;-74
2021/12/12 07:55:32;;;;;;;;;;;;;;;6.79;100.00;90080.97;5091859;28;19966;-74
2021/12/12 07:57:58;;;;;;;;;;;;;;;6.51;100.00;90092.81;5092518;28;20405;-74
2021/12/12 08:00:25;;;;;;;;;;;;;;;6.34;100.00;90090.09;5092345;28;19916;-74
2021/12/12 08:02:51;;;;;;;;;;;;;;;5.91;100.00;90101.94;5091423;28;19955;-77
2021/12/12 08:05:20;;;;;;;;;;;;;;;5.90;100.00;90113.56;5092391;28;19963;-77
2021/12/12 08:07:45;;;;;;;;;;;;;;;5.72;100.00;90114.50;5092013;28;19920;-78
2021/12/12 08:10:12;;;;;;;;;;;;;;;5.40;100.00;90113.63;5091983;28;19973;-77
2021/12/12 08:12:38;;;;;;;;;;;;;;;5.27;100.00;90121.56;5091835;28;19923;-77
2021/12/12 08:15:04;;;;;;;;;;;;;;;5.18;100.00;90126.72;5092186;28;20006;-76
2021/12/12 08:17:30;;;;;;;;;;;;;;;5.22;100.00;90129.56;5091945;28;19955;-74
2021/12/12 08:19:57;;;;;;;;;;;;;;;5.15;100.00;90129.19;5091283;28;19922;-76
2021/12/12 08:22:23;;;;;;;;;;;;;;;5.14;100.00;90141.56;5092166;28;19916;-74
2021/12/12 08:24:49;;;;;;;;;;;;;;;5.20;100.00;90144.88;5090309;28;19917;-75
2021/12/12 08:27:15;;;;;;;;;;;;;;;5.27;100.00;90140.00;5092143;28;20019;-76
2021/12/12 08:29:42;;;;;;;;;;;;;;;5.42;100.00;90147.59;5092074;28;19916;-75
2021/12/12 08:32:08;;;;;;;;;;;;;;;5.33;100.00;90139.59;5091187;28;20076;-75
2021/12/12 08:34:34;;;;;;;;;;;;;;;5.53;100.00;90148.94;5094056;28;19920;-74
2021/12/12 08:37:00;;;;;;;;;;;;;;;5.88;100.00;90154.50;5094326;28;20313;-75
2021/12/12 08:39:27;;;;;;;;;;;;;;;5.91;100.00;90160.00;5091720;28;19920;-76
2021/12/12 08:41:54;;;;;;;;;;;;;;;6.06;100.00;90155.47;5091876;28;19920;-76
2021/12/12 08:44:19;;;;;;;;;;;;;;;5.64;100.00;90157.41;5091702;28;19916;-75
2021/12/12 08:46:46;;;;;;;;;;;;;;;5.27;100.00;90169.00;5091364;28;20347;-75
2021/12/12 08:49:12;;;;;;;;;;;;;;;4.99;100.00;90174.28;5091044;28;19920;-75
2021/12/12 08:51:40;;;;;;;;;;;;;;;4.62;100.00;90169.19;5091764;28;19916;-76
2021/12/12 08:54:14;;;;;;;;;;;;;;;4.50;100.00;90170.44;5091639;28;20428;-76
2021/12/12 08:56:46;;;;;;;;;;;;;;;4.52;100.00;90178.03;5091488;28;19924;-75
2021/12/12 08:59:14;;;;;;;;;;;;;;;4.75;100.00;90176.34;5094989;28;20367;-78
2021/12/12 09:01:41;;;;;;;;;;;;;;;5.79;100.00;90177.41;5091485;28;19920;-75
2021/12/12 09:04:07;;;;;;;;;;;;;;;6.00;100.00;90173.28;5091215;28;20376;-69
2021/12/12 09:06:35;;;;;;;;;;;;;;;5.47;100.00;90183.63;5091550;28;20028;-71
2021/12/12 09:09:06;;;;;;;;;;;;;;;4.96;100.00;90187.28;5090654;28;20006;-64
2021/12/12 09:11:33;;;;;;;;;;;;;;;4.92;100.00;90165.22;5091580;28;19922;-63
2021/12/12 09:14:16;;;;;;;;;;;;;;;5.06;100.00;90160.72;5091411;28;19916;-65
2021/12/12 09:16:46;;;;;;;;;;;;;;;5.13;100.00;90165.59;5091011;28;20393;-65
2021/12/12 09:19:25;;;;;;;;;;;;;;;5.32;100.00;90174.16;5090848;28;19970;-66
2021/12/12 09:21:53;;;;;;;;;;;;;;;5.90;100.00;90179.56;5091149;28;19978;-65
2021/12/12 09:24:31;;;;;;;;;;;;;;;6.00;100.00;90179.34;5092361;28;19923;-65
2021/12/12 09:27:05;;;;;;;;;;;;;;;6.74;100.00;90167.53;5092797;28;19966;-66
2021/12/12 09:29:30;;;;;;;;;;;;;;;6.33;100.00;90178.34;5094802;28;19919;-67
2021/12/12 09:32:01;;;;;;;;;;;;;;;6.41;100.00;90173.09;5093221;28;19923;-66
2021/12/12 09:34:32;;;;;;;;;;;;;;;7.06;100.00;90174.34;5094956;28;20442;-66
2021/12/12 09:37:00;;;;;;;;;;;;;;;7.10;100.00;90177.94;5094773;28;20316;-67
2021/12/12 09:39:25;;;;;;;;;;;;;;;6.47;100.00;90185.09;5095031;28;19924;-66
2021/12/12 09:42:14;;;;;;;;;;;;;;;5.82;100.00;90188.16;5095220;28;19916;-66
2021/12/12 09:44:58;;;;;;;;;;;;;;;5.29;100.00;90187.94;5074941;28;19924;-67
2021/12/12 09:53:06;;;;;;;;;;;;;;;5.72;100.00;90177.81;5094278;28;19989;-69
2021/12/12 09:55:41;;;;;;;;;;;;;;;5.68;100.00;90180.28;5094875;28;19946;-67
2021/12/12 09:58:11;;;;;;;;;;;;;;;5.86;100.00;90191.00;5094471;28;20285;-68
2021/12/12 10:00:52;;;;;;;;;;;;;;;5.74;100.00;90182.81;5094305;28;19916;-68
2021/12/12 10:03:23;;;;;;;;;;;;;;;5.54;100.00;90184.81;5094200;28;20374;-68
2021/12/12 10:05:49;;;;;;;;;;;;;;;5.39;100.00;90200.94;5094736;28;19923;-68
2021/12/12 10:08:33;;;;;;;;;;;;;;;4.63;100.00;90207.63;5093987;28;20430;-68
2021/12/12 10:11:01;;;;;;;;;;;;;;;4.53;100.00;90223.59;5094222;28;19916;-65
2021/12/12 10:13:29;;;;;;;;;;;;;;;3.83;100.00;90225.19;5094514;28;19920;-66
2021/12/12 10:15:57;;;;;;;;;;;;;;;3.66;100.00;90221.50;5092687;28;19928;-65
2021/12/12 10:18:38;;;;;;;;;;;;;;;3.41;100.00;90227.88;5093990;28;19959;-65
2021/12/12 10:21:10;;;;;;;;;;;;;;;3.24;100.00;90228.34;5094337;28;19920;-64
2021/12/12 10:24:04;;;;;;;;;;;;;;;3.53;100.00;90238.75;5093663;28;19997;-64
2021/12/12 10:26:39;;;;;;;;;;;;;;;3.56;100.00;90232.94;5084887;28;19920;-65
2021/12/12 10:29:17;;;;;;;;;;;;;;;3.35;100.00;90234.25;5093567;28;19923;-64
2021/12/12 10:31:46;;;;;;;;;;;;;;;3.23;100.00;90239.91;5093664;28;19916;-65
2021/12/12 10:34:14;;;;;;;;;;;;;;;2.81;100.00;90238.78;5093640;28;19970;-67
2021/12/12 10:36:49;;;;;;;;;;;;;;;2.95;100.00;90247.56;5093968;28;19920;-69
2021/12/12 10:39:25;;;;;;;;;;;;;;;3.20;100.00;90233.38;5094203;28;20010;-70
2021/12/12 10:41:56;;;;;;;;;;;;;;;3.40;100.00;90242.06;5094206;28;19992;-71
2021/12/12 10:44:45;;;;;;;;;;;;;;;3.42;100.00;90240.72;5094437;28;19923;-74
2021/12/12 10:47:28;;;;;;;;;;;;;;;3.53;100.00;90241.38;5094468;28;20010;-75
2021/12/12 10:50:11;;;;;;;;;;;;;;;3.20;100.00;90238.63;5094234;28;20416;-75
2021/12/12 10:52:40;;;;;;;;;;;;;;;3.32;100.00;90240.09;5094321;28;19916;-74
2021/12/12 10:55:25;;;;;;;;;;;;;;;3.52;100.00;90240.59;5094321;28;20022;-73
2021/12/12 10:58:09;;;;;;;;;;;;;;;3.48;100.00;90238.84;5042733;28;19965;-73
2021/12/12 11:00:43;;;;;;;;;;;;;;;3.44;100.00;90241.22;5094181;28;19935;-74
2021/12/12 11:03:11;;;;;;;;;;;;;;;3.56;100.00;90246.09;5094220;28;19917;-74
2021/12/12 11:05:39;;;;;;;;;;;;;;;3.51;100.00;90235.63;5094055;28;19916;-74
2021/12/12 11:08:16;;;;;;;;;;;;;;;3.39;100.00;90243.13;5093877;28;20381;-74
2021/12/12 11:10:44;;;;;;;;;;;;;;;2.99;100.00;90250.41;5094018;28;19916;-73
2021/12/12 11:13:26;;;;;;;;;;;;;;;3.04;100.00;90242.50;5094159;28;20035;-73
2021/12/12 11:16:00;;;;;;;;;;;;;;;3.20;100.00;90243.09;5093915;28;19920;-73
2021/12/12 11:18:30;;;;;;;;;;;;;;;3.25;100.00;90250.94;5093749;28;19924;-73
2021/12/12 11:21:10;;;;;;;;;;;;;;;3.08;100.00;90246.13;5093776;28;19924;-73
2021/12/12 11:23:43;;;;;;;;;;;;;;;2.84;100.00;90245.31;5093796;28;19923;-73
2021/12/12 11:26:12;;;;;;;;;;;;;;;2.69;100.00;90251.53;5093699;28;19951;-73
2021/12/12 11:28:43;;;;;;;;;;;;;;;2.76;100.00;90261.69;5093492;28;19916;-73
2021/12/12 11:31:13;;;;;;;;;;;;;;;2.85;100.00;90247.69;5093863;28;20325;-73
2021/12/12 11:33:42;;;;;;;;;;;;;;;2.89;100.00;90253.16;5093451;28;20010;-74
2021/12/12 11:36:12;;;;;;;;;;;;;;;2.48;100.00;90258.78;5093745;28;19916;-73
2021/12/12 11:38:37;;;;;;;;;;;;;;;2.46;100.00;90258.28;5093332;28;19916;-73
2021/12/12 11:41:09;;;;;;;;;;;;;;;2.42;100.00;90249.41;5093086;28;19920;-73
2021/12/12 11:43:42;;;;;;;;;;;;;;;2.66;100.00;90239.72;5093371;28;20409;-70
2021/12/12 11:46:11;;;;;;;;;;;;;;;2.51;100.00;90252.97;5092795;28;19916;-72
2021/12/12 11:48:39;;;;;;;;;;;;;;;2.49;100.00;90264.81;5092602;28;19928;-73
2021/12/12 11:51:10;;;;;;;;;;;;;;;2.22;100.00;90270.56;5075012;28;20298;-74
2021/12/12 11:53:35;;;;;;;;;;;;;;;2.23;100.00;90274.75;5093116;28;19931;-74
2021/12/12 11:56:24;;;;;;;;;;;;;;;1.97;100.00;90269.69;5093105;28;20329;-74
2021/12/12 11:59:04;;;;;;;;;;;;;;;1.85;100.00;90281.56;5079652;28;19916;-72
2021/12/12 12:01:33;;;;;;;;;;;;;;;1.87;100.00;90282.06;5093030;28;19942;-71
2021/12/12 12:04:03;;;;;;;;;;;;;;;2.09;100.00;90278.00;5092170;28;20313;-71
2021/12/12 12:06:32;;;;;;;;;;;;;;;2.00;100.00;90279.63;5074785;28;19915;-77
2021/12/12 12:09:07;;;;;;;;;;;;;;;2.06;100.00;90283.81;5092689;28;19916;-77
2021/12/12 12:11:35;;;;;;;;;;;;;;;2.10;100.00;90289.28;5092849;28;19922;-77
2021/12/12 12:14:03;;;;;;;;;;;;;;;1.96;100.00;90289.09;5092822;28;19920;-78
2021/12/12 12:16:35;;;;;;;;;;;;;;;1.87;100.00;90295.19;5092663;28;19931;-77
2021/12/12 12:19:06;;;;;;;;;;;;;;;1.97;100.00;90290.66;5092632;28;19916;-76
2021/12/12 12:21:51;;;;;;;;;;;;;;;1.79;100.00;90292.09;5074476;28;19916;-76
2021/12/12 12:24:22;;;;;;;;;;;;;;;2.03;100.00;90307.16;5092718;28;19923;-77
2021/12/12 12:27:03;;;;;;;;;;;;;;;2.22;100.00;90302.06;5093615;28;19923;-79
2021/12/12 12:29:31;;;;;;;;;;;;;;;2.59;100.00;90301.50;5091850;28;20020;-79
2021/12/12 12:32:15;;;;;;;;;;;;;;;2.72;100.00;90290.38;5089172;28;19920;-80
2021/12/12 12:34:43;;;;;;;;;;;;;;;2.64;100.00;90289.09;5092316;28;19942;-75
2021/12/12 12:37:12;;;;;;;;;;;;;;;2.55;100.00;90301.28;5092073;28;19923;-77
2021/12/12 12:39:49;;;;;;;;;;;;;;;2.65;100.00;90306.44;5074117;28;19931;-78
2021/12/12 12:42:33;;;;;;;;;;;;;;;2.29;100.00;90315.66;5092234;28;20199;-76
2021/12/12 12:45:08;;;;;;;;;;;;;;;2.19;100.00;90320.94;5091904;28;19969;-75
2021/12/12 12:47:52;;;;;;;;;;;;;;;1.96;100.00;90315.34;5091625;28;19962;-75
2021/12/12 12:50:36;;;;;;;;;;;;;;;2.09;100.00;90311.31;5091531;28;19977;-72
2021/12/12 12:53:30;;;;;;;;;;;;;;;1.66;100.00;90315.50;5091818;28;19916;-70
2021/12/12 12:56:15;;;;;;;;;;;;;;;1.57;100.00;90317.09;5091549;28;19931;-70
2021/12/12 12:58:56;;;;;;;;;;;;;;;1.41;100.00;90322.41;5091820;28;19922;-71
2021/12/12 13:01:33;;;;;;;;;;;;;;;1.37;100.00;90329.25;5091785;28;20012;-73
2021/12/12 13:04:01;;;;;;;;;;;;;;;1.29;100.00;90329.81;5091836;28;19924;-74
2021/12/12 13:06:45;;;;;;;;;;;;;;;1.42;100.00;90328.44;5091538;28;19916;-69
2021/12/12 13:09:17;;;;;;;;;;;;;;;1.46;100.00;90324.25;5091618;28;19923;-69
2021/12/12 13:11:45;;;;;;;;;;;;;;;1.35;100.00;90341.81;5091886;28;19923;-70
2021/12/12 13:14:13;;;;;;;;;;;;;;;1.47;100.00;90344.16;5090995;28;19921;-69
2021/12/12 13:16:44;;;;;;;;;;;;;;;1.49;100.00;90344.66;5091624;28;20021;-69
2021/12/12 13:19:31;;;;;;;;;;;;;;;1.52;100.00;90344.13;5091727;28;19951;-68
2021/12/12 13:22:10;;;;;;;;;;;;;;;1.51;100.00;90342.56;5041205;28;20447;-69
2021/12/12 13:24:35;;;;;;;;;;;;;;;1.35;100.00;90351.53;5091715;28;20404;-69